Airfield :
LOGIN :

Register | Disclaimer

   EN    FR    IT 

 










Legend :    VFR   Marginal VFR   IFR   Intensive IFR   Very Intensive IFR
Visi :
Ceiling :
>= 8 km
>= 3000ft
5 to 8 km
1000 to 3000 ft
1500m to 5 km
500 to 1000 ft
800 to 1500m
200 to 500 ft
< 800m
< 200 ft
Symbols :   Thunderstorms  Fog  Heavy snow  Heavy precipitations  Wind > 20 kt
SIGMETs :     Misc.  Thunderstorms  Icing  Turbulence  Mountain Waves  Volcanic Ashes






- Airport Elevation : 183 ft
- IATA code : HAJ


EDDV - Hanover/Langenhagen Int.

CURRENT METAR :
  • 230920Z AUTO 25009KT 200V290 9999 FEW028 SCT033 19/13 Q1014 NOSIG

EXPIRED METARs :
  • 230850Z AUTO 26010KT 230V300 9999 SCT028 19/13 Q1014 NOSIG
  • 230820Z AUTO 26009KT 230V290 9999 FEW026 18/12 Q1014 NOSIG
  • 230750Z AUTO 25009KT 200V290 9999 FEW026 18/12 Q1014 NOSIG
  • 230720Z AUTO 25009KT 220V290 CAVOK 17/11 Q1014 NOSIG
  • 230650Z AUTO 26008KT 230V290 CAVOK 16/12 Q1014 NOSIG
  • 230620Z AUTO 26006KT 220V310 CAVOK 16/11 Q1014 NOSIG
  • 230550Z AUTO 25007KT CAVOK 15/11 Q1013 NOSIG
  • 230520Z AUTO 25006KT CAVOK 14/11 Q1013 NOSIG
  • 230450Z AUTO 25006KT 9999 FEW035 13/11 Q1013 NOSIG

TAF TAF EDDV
Valid from the 23 at 06:00 until the 24 at 06:00 UTC


230500Z 2306/2406 27008KT 9999 FEW045
BECMG 2315/2317 VRB02KT



MET'MAP, your aeronautical weather chart ! - Copyright ORBIFLY December 2007 - Disclaimer

ORBIFLY MET'MAP TEAM :

Programming & Development : Alexandra Zaïnal
Original concept : Baudouin d'Aumeries
Technical & hardware support : Manuel Goepfert
Assistance : Marc-Olivier Méhu




SOURCES & CREDITS :

   NOAA